createdAt,value
2022-09-14T00:01:43.865Z,27.45
2022-09-14T00:04:11.939Z,27.02
2022-09-14T00:06:38.529Z,26.38
2022-09-14T00:09:07.001Z,27.58
2022-09-14T00:11:36.283Z,27.88
2022-09-14T00:14:03.434Z,28.05
2022-09-14T00:16:31.512Z,27.55
2022-09-14T00:19:05.678Z,1.92
2022-09-14T00:21:36.675Z,4.20
2022-09-14T00:24:04.130Z,2.88
2022-09-14T00:26:30.651Z,3.50
2022-09-14T00:28:58.135Z,4.22
2022-09-14T00:31:25.773Z,2.97
2022-09-14T00:33:52.726Z,2.22
2022-09-14T00:36:22.274Z,3.63
2022-09-14T00:38:49.191Z,2.53
2022-09-14T00:41:17.254Z,2.20
2022-09-14T00:43:59.016Z,3.55
2022-09-14T00:46:26.452Z,2.53
2022-09-14T00:48:53.452Z,2.90
2022-09-14T00:51:21.239Z,2.83
2022-09-14T00:53:48.436Z,3.17
2022-09-14T00:56:15.051Z,4.35
2022-09-14T00:58:43.019Z,2.95
2022-09-14T01:01:10.412Z,3.05
2022-09-14T01:03:37.022Z,3.58
2022-09-14T01:06:03.476Z,2.50
2022-09-14T01:08:30.295Z,4.22
2022-09-14T01:11:11.681Z,3.42
2022-09-14T01:13:38.151Z,2.20
2022-09-14T01:16:14.520Z,2.88
2022-09-14T01:18:44.658Z,2.10
2022-09-14T01:21:14.371Z,3.28
2022-09-14T01:23:55.921Z,3.33
2022-09-14T01:26:22.414Z,4.18
2022-09-14T01:28:48.866Z,3.00
2022-09-14T01:31:18.298Z,1.83
2022-09-14T01:34:07.863Z,2.35
2022-09-14T01:36:36.454Z,2.30
2022-09-14T01:39:03.423Z,3.47
2022-09-14T01:41:31.784Z,4.13
2022-09-14T01:44:01.835Z,2.90
2022-09-14T01:46:35.933Z,4.97
2022-09-14T01:49:02.425Z,1.50
2022-09-14T01:51:31.598Z,3.17
2022-09-14T01:54:05.366Z,3.38
2022-09-14T01:56:37.513Z,3.97
2022-09-14T01:59:07.035Z,2.10
2022-09-14T02:01:52.350Z,5.72
2022-09-14T02:04:22.690Z,2.38
2022-09-14T02:06:49.337Z,5.32
2022-09-14T02:09:20.096Z,2.05
2022-09-14T02:11:46.926Z,1.70
2022-09-14T02:14:13.450Z,3.13
2022-09-14T02:16:43.467Z,2.63
2022-09-14T02:19:10.430Z,4.90
2022-09-14T02:21:38.385Z,2.85
2022-09-14T02:24:05.413Z,3.85
2022-09-14T02:26:32.313Z,4.07
2022-09-14T02:28:59.171Z,2.97
2022-09-14T02:31:30.326Z,2.22
2022-09-14T02:33:56.767Z,3.40
2022-09-14T02:36:28.546Z,2.60
2022-09-14T02:39:11.928Z,2.95
2022-09-14T02:41:39.759Z,7.43
2022-09-14T02:44:29.275Z,2.40
2022-09-14T02:47:01.456Z,2.83
2022-09-14T02:49:46.450Z,2.53
2022-09-14T02:52:18.362Z,2.42
2022-09-14T02:55:00.064Z,1.92
2022-09-14T02:57:26.653Z,1.95
2022-09-14T02:59:53.760Z,3.42
2022-09-14T03:02:20.422Z,4.50
2022-09-14T03:04:46.954Z,1.15
2022-09-14T03:07:13.370Z,5.20
2022-09-14T03:09:40.477Z,3.67
2022-09-14T03:12:06.905Z,3.33
2022-09-14T03:14:33.418Z,4.15
2022-09-14T03:16:59.902Z,2.63
2022-09-14T03:19:26.402Z,2.80
2022-09-14T03:21:52.906Z,2.30
2022-09-14T03:24:19.366Z,2.60
2022-09-14T03:26:47.316Z,3.00
2022-09-14T03:29:13.738Z,3.47
2022-09-14T03:31:40.326Z,2.25
2022-09-14T03:34:06.887Z,5.95
2022-09-14T03:36:33.555Z,4.25
2022-09-14T03:39:01.735Z,3.33
2022-09-14T03:41:28.738Z,4.93
2022-09-14T03:43:55.225Z,5.07
2022-09-14T03:46:22.557Z,3.17
2022-09-14T03:48:49.172Z,4.80
2022-09-14T03:51:15.746Z,4.13
2022-09-14T03:53:43.166Z,2.65
2022-09-14T03:56:10.823Z,6.63
2022-09-14T03:58:37.664Z,5.68
2022-09-14T04:01:05.458Z,5.22
2022-09-14T04:03:32.219Z,3.33
2022-09-14T04:05:59.323Z,2.30
2022-09-14T04:08:25.839Z,4.60
2022-09-14T04:10:52.354Z,3.53
2022-09-14T04:13:18.859Z,1.70
2022-09-14T04:15:55.274Z,4.40
2022-09-14T04:18:21.729Z,5.72
2022-09-14T04:20:53.935Z,5.10
2022-09-14T04:23:20.367Z,2.35
2022-09-14T04:25:46.854Z,2.97
2022-09-14T04:28:20.867Z,3.38
2022-09-14T04:31:00.720Z,5.03
2022-09-14T04:33:29.656Z,4.10
2022-09-14T04:35:57.765Z,4.15
2022-09-14T04:38:24.402Z,2.47
2022-09-14T04:40:50.882Z,2.10
2022-09-14T04:43:17.350Z,4.20
2022-09-14T04:45:44.325Z,3.25
2022-09-14T04:48:10.729Z,2.33
2022-09-14T04:50:37.264Z,4.35
2022-09-14T04:53:03.740Z,2.95
2022-09-14T04:55:30.157Z,5.22
2022-09-14T04:57:56.609Z,4.18
2022-09-14T05:00:23.314Z,4.85
2022-09-14T05:02:49.828Z,2.65
2022-09-14T05:05:16.319Z,3.13
2022-09-14T05:07:42.791Z,5.30
2022-09-14T05:10:09.345Z,5.28
2022-09-14T05:12:35.831Z,3.22
2022-09-14T05:15:02.255Z,7.20
2022-09-14T05:17:28.720Z,4.38
2022-09-14T05:19:55.136Z,4.80
2022-09-14T05:22:22.608Z,6.38
2022-09-14T05:24:49.038Z,3.33
2022-09-14T05:27:15.523Z,2.53
2022-09-14T05:29:41.975Z,4.72
2022-09-14T05:32:08.408Z,2.33
2022-09-14T05:34:34.926Z,3.67
2022-09-14T05:37:01.395Z,5.70
2022-09-14T05:39:27.930Z,3.83
2022-09-14T05:41:54.361Z,2.75
2022-09-14T05:44:20.890Z,3.88
2022-09-14T05:46:47.391Z,5.80
2022-09-14T05:49:13.850Z,2.85
2022-09-14T05:51:40.325Z,5.10
2022-09-14T05:54:11.432Z,8.00
2022-09-14T05:56:38.215Z,3.83
2022-09-14T05:59:04.668Z,6.25
2022-09-14T06:01:32.993Z,2.90
2022-09-14T06:04:00.827Z,6.30
2022-09-14T06:06:27.264Z,5.03
2022-09-14T06:08:55.128Z,4.45
2022-09-14T06:11:26.015Z,3.40
2022-09-14T06:13:54.264Z,4.28
2022-09-14T06:16:21.278Z,5.38
2022-09-14T06:18:48.397Z,7.00
2022-09-14T06:21:16.667Z,4.50
2022-09-14T06:23:43.835Z,3.75
2022-09-14T06:26:10.541Z,4.13
2022-09-14T06:28:37.020Z,5.10
2022-09-14T06:31:04.537Z,2.85
2022-09-14T06:33:31.523Z,3.38
2022-09-14T06:35:59.085Z,6.05
2022-09-14T06:38:26.214Z,5.68
2022-09-14T06:40:57.022Z,3.63
2022-09-14T06:43:27.470Z,4.70
2022-09-14T06:45:56.987Z,6.13
2022-09-14T06:48:23.616Z,4.30
2022-09-14T06:50:50.045Z,5.88
2022-09-14T06:53:16.493Z,4.43
2022-09-14T06:55:44.788Z,2.30
2022-09-14T06:58:11.541Z,5.43
2022-09-14T07:00:38.104Z,4.25
2022-09-14T07:03:04.774Z,5.60
2022-09-14T07:05:31.256Z,6.28
2022-09-14T07:07:57.865Z,3.78
2022-09-14T07:10:28.097Z,4.90
2022-09-14T07:12:55.321Z,3.33
2022-09-14T07:15:22.021Z,4.20
2022-09-14T07:17:48.491Z,3.05
2022-09-14T07:32:05.289Z,1.92
2022-09-14T07:34:31.809Z,3.45
2022-09-14T07:36:58.274Z,5.18
2022-09-14T07:39:24.731Z,2.65
2022-09-14T07:41:51.264Z,3.22
2022-09-14T07:44:18.111Z,5.18
2022-09-14T07:46:45.353Z,3.63
2022-09-14T07:49:12.060Z,1.27
2022-09-14T07:51:39.009Z,3.78
2022-09-14T07:54:06.442Z,4.22
2022-09-14T07:56:32.997Z,3.10
2022-09-14T07:59:23.877Z,3.33
2022-09-14T08:01:47.017Z,5.40
2022-09-14T08:04:13.677Z,5.53
2022-09-14T08:06:40.627Z,4.57
